createdAt,value
2023-02-03T00:05:43.626Z,19.3744
2023-02-03T00:20:45.450Z,19.076
2023-02-03T00:35:47.340Z,18.9522
2023-02-03T00:50:49.275Z,19.2673
2023-02-03T01:05:51.150Z,18.4093
2023-02-03T01:20:53.016Z,19.0921
2023-02-03T01:35:54.949Z,17.646
2023-02-03T01:50:56.885Z,19.2283
2023-02-03T02:05:58.802Z,18.1914
2023-02-03T02:21:17.401Z,19.3292
2023-02-03T02:36:19.412Z,18.1295
2023-02-03T02:51:21.356Z,19.3354
2023-02-03T03:07:44.712Z,18.0843
2023-02-03T03:22:46.703Z,18.9033
2023-02-03T03:37:48.607Z,18.8934
2023-02-03T03:52:50.499Z,19.1113
2023-02-03T04:07:52.466Z,17.8862
2023-02-03T04:22:54.429Z,19.0593
2023-02-03T04:37:56.755Z,18.6563
2023-02-03T04:52:58.662Z,19.2054
2023-02-03T05:08:00.583Z,18.2372
2023-02-03T05:23:02.534Z,18.9943
2023-02-03T05:38:04.450Z,18.6235
2023-02-03T05:53:06.529Z,18.0812
2023-02-03T06:08:08.489Z,19.2673
2023-02-03T06:23:10.438Z,19.9012
2023-02-03T06:38:12.368Z,21.1232
2023-02-03T06:53:14.322Z,21.338
2023-02-03T07:08:16.239Z,16.2222
2023-02-03T07:23:18.157Z,20.1841
2023-02-03T07:38:20.079Z,22.7098
2023-02-03T07:53:21.914Z,23.4768
2023-02-03T08:08:23.780Z,23.3926
2023-02-03T08:23:25.635Z,23.7046
2023-02-03T08:38:27.542Z,23.9386
2023-02-03T08:53:29.521Z,23.8024
2023-02-03T09:08:31.468Z,23.8092
2023-02-03T09:23:33.388Z,24.6542
2023-02-03T09:38:35.350Z,24.8814
2023-02-03T09:53:37.290Z,24.7774
2023-02-03T10:08:39.267Z,24.4072
2023-02-03T10:23:41.234Z,24.5694
2023-02-03T10:38:43.152Z,24.3162
2023-02-03T10:53:45.099Z,24.1701
2023-02-03T11:08:47.096Z,24.3583
2023-02-03T11:23:49.192Z,24.5694
2023-02-03T11:38:51.112Z,24.7675
2023-02-03T11:53:57.271Z,24.5663
2023-02-03T12:08:59.919Z,24.0853
2023-02-03T12:24:01.876Z,23.4285
2023-02-03T12:39:03.932Z,23.0707
2023-02-03T12:54:05.855Z,22.1935
2023-02-03T13:09:07.760Z,22.0047
2023-02-03T13:24:09.654Z,21.5757
2023-02-03T13:39:11.578Z,20.6496
2023-02-03T13:54:13.545Z,20.051
2023-02-03T14:09:15.474Z,19.258
2023-02-03T14:24:17.368Z,17.893
2023-02-03T14:39:19.287Z,17.9741
2023-02-03T14:54:21.309Z,17.6652
2023-02-03T15:09:23.593Z,17.6553
2023-02-03T15:24:25.549Z,17.5445
2023-02-03T15:39:27.477Z,17.3464
2023-02-03T15:54:29.383Z,17.7686
2023-02-03T16:09:31.324Z,17.0864
2023-02-03T16:24:33.358Z,17.9797
2023-02-03T16:39:35.263Z,19.7613
2023-02-03T16:54:37.186Z,21.2953
2023-02-03T17:09:39.155Z,22.2579
2023-02-03T17:24:41.198Z,22.2127
2023-02-03T17:56:54.700Z,22.9339
2023-02-03T18:11:56.497Z,22.2975
2023-02-03T18:26:58.435Z,22.6937
2023-02-03T18:42:00.375Z,23.7566
2023-02-03T18:57:02.571Z,24.4295
2023-02-03T19:12:04.510Z,24.3973
2023-02-03T19:27:06.451Z,24.6251
2023-02-03T19:42:08.381Z,25.8762
2023-02-03T19:57:10.329Z,25.9121
2023-02-03T20:12:12.246Z,25.974
2023-02-03T20:27:14.197Z,26.1758
2023-02-03T20:42:16.106Z,25.922
2023-02-03T20:57:18.000Z,26.7218
2023-02-03T21:12:20.033Z,26.9527
2023-02-03T21:27:21.974Z,27.2325
2023-02-03T21:42:23.906Z,27.4659
2023-02-03T21:57:25.908Z,26.6079
2023-02-03T22:12:27.831Z,28.0775
2023-02-03T22:27:29.786Z,28.4706
2023-02-03T22:42:31.727Z,28.2174
2023-02-03T22:57:33.628Z,28.6885
2023-02-03T23:12:35.541Z,28.0385
2023-02-03T23:27:37.417Z,27.7946
2023-02-03T23:42:39.606Z,27.4956
2023-02-03T23:57:41.599Z,27.0245
